Midland, MI

7:17 PM EST on November 22, 2014 (GMT -0500)
Saginaw County-Browne | Change Station
CLOSE
Current Station
Airport
Location: Saginaw Browne,
Elevation: 600 ft
Nearby Weather Stations
Active Advisory: Special Statement Active Notice: Record Report

Elev 600 ft 43.43 °N, 83.86 °W | Updated 22 minutes ago

Fog
Fog
43 °F
Feels Like 36 °F
N
14
Wind Variable Wind from SSW

Today
High -- | Low -- °F
--% Chance of Precip.
Yesterday
High -- | Low -- °F
Precip. -- in
7:39 AM 5:06 PM
New Moon, 0% visible
Pressure 29.87 in
Visibility 1.8 miles
Clouds Overcast 500 ft
Windchill 36 °F
Dew Point 43 °F
Humidity 100%
Rainfall 0.00 in
Snow Depth Not available.
UV 0 out of 12
Pollen .10 out of 12
Air Quality Not available.
Flu Activity Not available.
METAR KHYX 222355Z AUTO 21012KT 1 3/4SM BR OVC005 06/06 A2987 RMK AO2

More Conditions Fewer Conditions

Pressure 29.87 in
Visibility 1.8 miles
Clouds Overcast 500 ft
Windchill 36 °F
Dew Point 43 °F
Humidity 100%
Rainfall 0.00 in
Snow Depth Not available.
UV 0 out of 12
Pollen .10 out of 12
Air Quality Not available.
Flu Activity Not available.
METAR KHYX 222355Z AUTO 21012KT 1 3/4SM BR OVC005 06/06 A2987 RMK AO2

More Conditions Fewer Conditions

10-Day Weather Forecast

Almanac

Astronomy

Nov. 22, 2014 Rise Set
Actual Time
Civil Twilight
Nautical Twilight
Astronomical Twilight
Moon
Length of Visible Light
Length of Day
Tomorrow will be .
, % of the Moon is Illuminated

Today's Extremes

State Highs State Lows

Community

WunderPhotos

Upload Photos

1,772,931 photos uploaded!

WunderBlogs® & News

Nearby

Air Quality

  Air Quality AQ Index Pollutant
Not available.

Snow Depth

Station Depth Elevation

Earthquake Activity

City Distance Mag. Time & Date
Minimum magnitude displayed is 2.5.

Coastal Water Temperatures

Place Temperature

Nearby Weather Stations